Список аэропортов
Фактическая погода:

15 августа, 23:30
Температура: +18°C (+18.0*)
Ветер: западный 3 м/с
Давление: *758 мм
Без существ. явл.
Время (МСК)Темп. СВетерВлажностьДавлениеОблачностьОсадки
21:00+21ЮЗ, 3 м/с92%1010 гПаоблачно
22:00+21ЮЗ, 3 м/с95%1011 гПаоблачно
23:00+20ЮЗ, 3 м/с97%1011 гПаоблачно
16 августа
00:00+20ЮЗ, 3 м/с97%1012 гПас прояснениями
01:00+20ЮЗ, 3 м/с97%1012 гПас прояснениями
02:00+19ЮЗ, 3 м/с97%1012 гПаоблачно
03:00+19ЮЗ, 3 м/с97%1012 гПаоблачно
04:00+18ЮЗ, 3 м/с97%1013 гПаоблачно
05:00+18ЮЗ, 3 м/с97%1013 гПаоблачно
06:00+18ЮЗ, 2 м/с97%1013 гПаоблачно
07:00+18ЮЗ, 3 м/с96%1014 гПаоблачно
08:00+19З, 3 м/с91%1014 гПаоблачно
09:00+20З, 3 м/с84%1014 гПаоблачно
10:00+22З, 4 м/с66%1015 гПаоблачно
11:00+23З, 4 м/с59%1015 гПаоблачно
12:00+24З, 5 м/с55%1015 гПас прояснениями
13:00+24З, 4 м/с54%1015 гПас прояснениями
14:00+24СЗ, 4 м/с52%1016 гПаоблачно
15:00+23СЗ, 5 м/с52%1016 гПаоблачно
16:00+22СЗ, 5 м/с55%1016 гПас прояснениями
17:00+21СЗ, 4 м/с61%1017 гПас прояснениями
18:00+20СЗ, 4 м/с68%1018 гПас прояснениями
19:00+19СЗ, 4 м/с74%1018 гПаоблачно
20:00+18С, 3 м/с76%1019 гПас прояснениями
21:00+16СЗ, 2 м/с83%1020 гПаясно
22:00+15СЗ, 2 м/с89%1020 гПаясно
23:00+14СЗ, 1 м/с93%1020 гПаясно
17 августа
00:00+13СЗ, 1 м/с96%1021 гПаясно
01:00+12СЗ, 2 м/с96%1021 гПаясно
02:00+12СЗ, 2 м/с96%1022 гПаясно
03:00+11СЗ, 1 м/с98%1022 гПаясно
04:00+10СЗ, 1 м/с98%1022 гПаясно
05:00+10СЗ, 1 м/с98%1023 гПаясно
06:00+10СЗ, 1 м/с98%1023 гПамалооблачно
07:00+12С, 1 м/с92%1024 гПаясно
08:00+14С, 1 м/с81%1024 гПаясно
09:00+18С, 2 м/с62%1024 гПаясно
10:00+21СВ, 3 м/с48%1024 гПаясно
11:00+22СВ, 4 м/с41%1023 гПаясно
12:00+23СВ, 4 м/с39%1023 гПаясно
13:00+23СВ, 3 м/с38%1023 гПаясно
14:00+24С, 3 м/с38%1023 гПаоблачно
15:00+24С, 3 м/с38%1023 гПаоблачно
16:00+23С, 3 м/с38%1023 гПаоблачно
17:00+23С, 3 м/с38%1023 гПаоблачно
18:00+22С, 4 м/с40%1023 гПаоблачно
19:00+21С, 3 м/с44%1023 гПас прояснениями
20:00+19С, 2 м/с51%1023 гПаясно
21:00+17С, 2 м/с61%1023 гПаясно